sensor_id;sensor_type;location;lat;lon;timestamp;P1;durP1;ratioP1;P2;durP2;ratioP2
23185;SDS011;11761;51.324;4.590;2022-12-31T00:01:36;2.00;;;1.35;;
23185;SDS011;11761;51.324;4.590;2022-12-31T00:04:02;1.75;;;1.30;;
23185;SDS011;11761;51.324;4.590;2022-12-31T00:06:33;2.15;;;1.38;;
23185;SDS011;11761;51.324;4.590;2022-12-31T00:09:00;1.42;;;1.05;;
23185;SDS011;11761;51.324;4.590;2022-12-31T00:11:29;1.90;;;1.45;;
23185;SDS011;11761;51.324;4.590;2022-12-31T00:13:55;1.35;;;1.10;;
23185;SDS011;11761;51.324;4.590;2022-12-31T00:16:26;1.60;;;1.48;;
23185;SDS011;11761;51.324;4.590;2022-12-31T00:18:55;1.58;;;1.27;;
23185;SDS011;11761;51.324;4.590;2022-12-31T00:21:26;3.90;;;1.67;;
23185;SDS011;11761;51.324;4.590;2022-12-31T00:23:53;1.48;;;1.25;;
23185;SDS011;11761;51.324;4.590;2022-12-31T00:26:21;2.72;;;1.48;;
23185;SDS011;11761;51.324;4.590;2022-12-31T00:28:51;1.75;;;1.30;;
23185;SDS011;11761;51.324;4.590;2022-12-31T00:31:20;3.03;;;1.30;;
23185;SDS011;11761;51.324;4.590;2022-12-31T00:33:51;1.40;;;1.10;;
23185;SDS011;11761;51.324;4.590;2022-12-31T00:36:19;1.83;;;1.30;;
23185;SDS011;11761;51.324;4.590;2022-12-31T00:38:50;1.52;;;1.15;;
23185;SDS011;11761;51.324;4.590;2022-12-31T00:41:18;0.95;;;0.85;;
23185;SDS011;11761;51.324;4.590;2022-12-31T00:43:45;1.30;;;0.82;;
23185;SDS011;11761;51.324;4.590;2022-12-31T00:46:12;1.83;;;0.80;;
23185;SDS011;11761;51.324;4.590;2022-12-31T00:48:38;1.50;;;0.70;;
23185;SDS011;11761;51.324;4.590;2022-12-31T00:51:06;1.10;;;0.77;;
23185;SDS011;11761;51.324;4.590;2022-12-31T00:53:34;2.15;;;1.00;;
23185;SDS011;11761;51.324;4.590;2022-12-31T00:56:02;1.02;;;0.70;;
23185;SDS011;11761;51.324;4.590;2022-12-31T00:58:30;0.90;;;0.60;;
23185;SDS011;11761;51.324;4.590;2022-12-31T01:00:56;0.80;;;0.50;;
23185;SDS011;11761;51.324;4.590;2022-12-31T01:03:22;1.80;;;0.60;;
23185;SDS011;11761;51.324;4.590;2022-12-31T01:05:49;1.77;;;0.68;;
23185;SDS011;11761;51.324;4.590;2022-12-31T01:08:16;0.77;;;0.60;;
23185;SDS011;11761;51.324;4.590;2022-12-31T01:10:47;0.82;;;0.60;;
23185;SDS011;11761;51.324;4.590;2022-12-31T01:13:32;1.90;;;0.60;;
23185;SDS011;11761;51.324;4.590;2022-12-31T01:16:05;0.65;;;0.50;;
23185;SDS011;11761;51.324;4.590;2022-12-31T01:18:32;0.47;;;0.40;;
23185;SDS011;11761;51.324;4.590;2022-12-31T01:21:00;0.60;;;0.50;;
23185;SDS011;11761;51.324;4.590;2022-12-31T01:23:28;1.15;;;0.68;;
23185;SDS011;11761;51.324;4.590;2022-12-31T01:25:55;0.55;;;0.55;;
23185;SDS011;11761;51.324;4.590;2022-12-31T01:28:25;1.13;;;0.75;;
23185;SDS011;11761;51.324;4.590;2022-12-31T01:30:51;0.77;;;0.60;;
23185;SDS011;11761;51.324;4.590;2022-12-31T01:33:17;1.73;;;0.82;;
23185;SDS011;11761;51.324;4.590;2022-12-31T01:35:43;1.60;;;1.10;;
23185;SDS011;11761;51.324;4.590;2022-12-31T01:38:09;1.30;;;0.90;;
23185;SDS011;11761;51.324;4.590;2022-12-31T01:40:36;1.35;;;1.13;;
23185;SDS011;11761;51.324;4.590;2022-12-31T01:43:05;1.60;;;1.20;;
23185;SDS011;11761;51.324;4.590;2022-12-31T01:45:41;1.20;;;1.00;;
23185;SDS011;11761;51.324;4.590;2022-12-31T01:48:10;1.50;;;1.20;;
23185;SDS011;11761;51.324;4.590;2022-12-31T01:50:38;1.20;;;1.10;;
23185;SDS011;11761;51.324;4.590;2022-12-31T01:53:07;1.40;;;1.05;;
23185;SDS011;11761;51.324;4.590;2022-12-31T01:55:42;1.50;;;0.77;;
23185;SDS011;11761;51.324;4.590;2022-12-31T01:58:14;1.33;;;0.85;;
23185;SDS011;11761;51.324;4.590;2022-12-31T02:00:45;1.00;;;0.82;;
23185;SDS011;11761;51.324;4.590;2022-12-31T02:03:12;1.70;;;1.00;;
23185;SDS011;11761;51.324;4.590;2022-12-31T02:08:14;1.50;;;1.05;;
23185;SDS011;11761;51.324;4.590;2022-12-31T02:10:40;1.10;;;0.88;;
23185;SDS011;11761;51.324;4.590;2022-12-31T02:13:06;1.60;;;0.93;;
23185;SDS011;11761;51.324;4.590;2022-12-31T02:15:58;1.00;;;0.80;;
23185;SDS011;11761;51.324;4.590;2022-12-31T02:18:36;1.77;;;0.95;;
23185;SDS011;11761;51.324;4.590;2022-12-31T02:30:20;2.03;;;1.27;;
23185;SDS011;11761;51.324;4.590;2022-12-31T02:33:06;3.03;;;1.42;;
23185;SDS011;11761;51.324;4.590;2022-12-31T02:35:57;2.30;;;1.60;;
23185;SDS011;11761;51.324;4.590;2022-12-31T02:38:28;2.28;;;1.58;;
23185;SDS011;11761;51.324;4.590;2022-12-31T02:41:00;2.30;;;1.45;;
23185;SDS011;11761;51.324;4.590;2022-12-31T02:43:26;2.53;;;1.85;;
23185;SDS011;11761;51.324;4.590;2022-12-31T02:46:01;4.07;;;2.08;;
23185;SDS011;11761;51.324;4.590;2022-12-31T02:56:44;3.00;;;2.10;;
23185;SDS011;11761;51.324;4.590;2022-12-31T02:59:37;4.57;;;1.80;;
23185;SDS011;11761;51.324;4.590;2022-12-31T03:02:26;2.38;;;1.63;;
23185;SDS011;11761;51.324;4.590;2022-12-31T03:04:55;3.00;;;1.70;;
23185;SDS011;11761;51.324;4.590;2022-12-31T03:07:23;2.30;;;1.67;;
23185;SDS011;11761;51.324;4.590;2022-12-31T03:09:54;1.85;;;1.10;;
23185;SDS011;11761;51.324;4.590;2022-12-31T03:12:21;1.48;;;1.05;;
23185;SDS011;11761;51.324;4.590;2022-12-31T03:15:09;1.30;;;0.90;;
23185;SDS011;11761;51.324;4.590;2022-12-31T03:20:28;1.05;;;0.80;;
23185;SDS011;11761;51.324;4.590;2022-12-31T03:23:17;0.80;;;0.63;;
23185;SDS011;11761;51.324;4.590;2022-12-31T03:25:48;0.93;;;0.60;;
23185;SDS011;11761;51.324;4.590;2022-12-31T03:28:15;0.85;;;0.68;;
23185;SDS011;11761;51.324;4.590;2022-12-31T03:30:44;1.10;;;0.80;;
23185;SDS011;11761;51.324;4.590;2022-12-31T03:33:16;0.85;;;0.60;;
23185;SDS011;11761;51.324;4.590;2022-12-31T03:35:43;1.77;;;0.70;;
23185;SDS011;11761;51.324;4.590;2022-12-31T03:38:10;0.88;;;0.60;;
23185;SDS011;11761;51.324;4.590;2022-12-31T03:40:37;0.80;;;0.60;;
23185;SDS011;11761;51.324;4.590;2022-12-31T03:43:05;1.05;;;0.60;;
23185;SDS011;11761;51.324;4.590;2022-12-31T03:45:31;0.95;;;0.73;;
23185;SDS011;11761;51.324;4.590;2022-12-31T03:47:59;1.75;;;0.80;;
23185;SDS011;11761;51.324;4.590;2022-12-31T03:50:29;0.82;;;0.60;;
23185;SDS011;11761;51.324;4.590;2022-12-31T03:52:55;2.35;;;0.95;;
23185;SDS011;11761;51.324;4.590;2022-12-31T03:55:21;1.73;;;0.73;;
23185;SDS011;11761;51.324;4.590;2022-12-31T03:57:47;4.88;;;0.70;;
23185;SDS011;11761;51.324;4.590;2022-12-31T04:00:15;0.80;;;0.60;;
23185;SDS011;11761;51.324;4.590;2022-12-31T04:02:43;1.42;;;0.80;;
23185;SDS011;11761;51.324;4.590;2022-12-31T04:05:10;7.68;;;0.80;;
23185;SDS011;11761;51.324;4.590;2022-12-31T04:07:36;1.52;;;0.60;;
23185;SDS011;11761;51.324;4.590;2022-12-31T04:10:03;2.83;;;0.80;;
23185;SDS011;11761;51.324;4.590;2022-12-31T04:12:30;2.35;;;0.68;;
23185;SDS011;11761;51.324;4.590;2022-12-31T04:14:57;1.00;;;0.60;;
23185;SDS011;11761;51.324;4.590;2022-12-31T04:17:23;0.43;;;0.32;;
23185;SDS011;11761;51.324;4.590;2022-12-31T04:19:50;2.35;;;0.50;;
23185;SDS011;11761;51.324;4.590;2022-12-31T04:22:16;1.00;;;0.70;;
23185;SDS011;11761;51.324;4.590;2022-12-31T04:24:42;2.10;;;0.65;;
23185;SDS011;11761;51.324;4.590;2022-12-31T04:27:08;3.65;;;0.70;;
23185;SDS011;11761;51.324;4.590;2022-12-31T04:29:38;1.27;;;0.45;;
23185;SDS011;11761;51.324;4.590;2022-12-31T04:32:05;1.13;;;0.80;;
23185;SDS011;11761;51.324;4.590;2022-12-31T04:34:33;1.25;;;0.52;;
23185;SDS011;11761;51.324;4.590;2022-12-31T04:36:59;2.13;;;0.77;;
23185;SDS011;11761;51.324;4.590;2022-12-31T04:39:25;0.50;;;0.50;;
23185;SDS011;11761;51.324;4.590;2022-12-31T04:41:51;1.10;;;0.50;;
23185;SDS011;11761;51.324;4.590;2022-12-31T04:44:18;1.90;;;0.70;;
23185;SDS011;11761;51.324;4.590;2022-12-31T04:46:45;1.80;;;0.90;;
23185;SDS011;11761;51.324;4.590;2022-12-31T04:49:11;2.20;;;0.63;;
23185;SDS011;11761;51.324;4.590;2022-12-31T04:51:37;2.05;;;0.55;;
23185;SDS011;11761;51.324;4.590;2022-12-31T04:54:04;1.63;;;0.70;;
23185;SDS011;11761;51.324;4.590;2022-12-31T04:56:30;2.22;;;0.60;;
23185;SDS011;11761;51.324;4.590;2022-12-31T04:58:57;2.78;;;0.80;;
23185;SDS011;11761;51.324;4.590;2022-12-31T05:01:23;0.70;;;0.50;;
23185;SDS011;11761;51.324;4.590;2022-12-31T05:03:49;1.52;;;0.70;;
23185;SDS011;11761;51.324;4.590;2022-12-31T05:06:16;2.05;;;0.63;;
23185;SDS011;11761;51.324;4.590;2022-12-31T05:08:44;2.58;;;0.40;;
23185;SDS011;11761;51.324;4.590;2022-12-31T05:11:11;0.60;;;0.45;;
23185;SDS011;11761;51.324;4.590;2022-12-31T05:13:37;1.27;;;0.50;;
23185;SDS011;11761;51.324;4.590;2022-12-31T05:16:04;2.00;;;0.57;;
23185;SDS011;11761;51.324;4.590;2022-12-31T05:18:30;1.13;;;0.55;;
23185;SDS011;11761;51.324;4.590;2022-12-31T05:20:57;0.90;;;0.43;;
23185;SDS011;11761;51.324;4.590;2022-12-31T05:23:23;1.83;;;0.50;;
23185;SDS011;11761;51.324;4.590;2022-12-31T05:25:50;1.67;;;0.50;;
23185;SDS011;11761;51.324;4.590;2022-12-31T05:28:17;0.88;;;0.30;;
23185;SDS011;11761;51.324;4.590;2022-12-31T05:30:43;2.65;;;0.50;;
23185;SDS011;11761;51.324;4.590;2022-12-31T05:33:12;1.70;;;0.60;;
23185;SDS011;11761;51.324;4.590;2022-12-31T05:35:38;0.95;;;0.30;;
23185;SDS011;11761;51.324;4.590;2022-12-31T05:38:04;3.15;;;0.60;;
23185;SDS011;11761;51.324;4.590;2022-12-31T05:40:30;1.13;;;0.32;;
23185;SDS011;11761;51.324;4.590;2022-12-31T05:42:56;0.40;;;0.40;;
23185;SDS011;11761;51.324;4.590;2022-12-31T05:45:22;1.40;;;0.50;;
23185;SDS011;11761;51.324;4.590;2022-12-31T05:47:48;1.00;;;0.30;;
23185;SDS011;11761;51.324;4.590;2022-12-31T05:50:14;0.60;;;0.40;;
23185;SDS011;11761;51.324;4.590;2022-12-31T05:52:41;0.47;;;0.30;;
23185;SDS011;11761;51.324;4.590;2022-12-31T05:55:08;0.38;;;0.30;;
23185;SDS011;11761;51.324;4.590;2022-12-31T05:57:35;1.38;;;0.20;;
23185;SDS011;11761;51.324;4.590;2022-12-31T06:00:02;1.45;;;0.30;;
23185;SDS011;11761;51.324;4.590;2022-12-31T06:02:30;0.50;;;0.40;;
23185;SDS011;11761;51.324;4.590;2022-12-31T06:04:56;1.60;;;0.30;;
23185;SDS011;11761;51.324;4.590;2022-12-31T06:07:22;0.63;;;0.63;;
23185;SDS011;11761;51.324;4.590;2022-12-31T06:09:48;2.50;;;0.30;;
23185;SDS011;11761;51.324;4.590;2022-12-31T06:12:14;0.40;;;0.20;;
23185;SDS011;11761;51.324;4.590;2022-12-31T06:14:40;0.43;;;0.30;;
23185;SDS011;11761;51.324;4.590;2022-12-31T06:17:06;1.23;;;0.30;;
23185;SDS011;11761;51.324;4.590;2022-12-31T06:19:32;0.20;;;0.20;;
23185;SDS011;11761;51.324;4.590;2022-12-31T06:21:58;0.38;;;0.30;;
23185;SDS011;11761;51.324;4.590;2022-12-31T06:24:24;0.73;;;0.60;;
23185;SDS011;11761;51.324;4.590;2022-12-31T06:26:50;1.30;;;0.25;;
23185;SDS011;11761;51.324;4.590;2022-12-31T06:29:16;1.90;;;0.30;;
23185;SDS011;11761;51.324;4.590;2022-12-31T06:31:42;1.88;;;0.40;;
23185;SDS011;11761;51.324;4.590;2022-12-31T06:34:08;2.70;;;0.30;;
23185;SDS011;11761;51.324;4.590;2022-12-31T06:36:36;0.40;;;0.30;;
23185;SDS011;11761;51.324;4.590;2022-12-31T06:39:03;2.70;;;0.47;;
23185;SDS011;11761;51.324;4.590;2022-12-31T06:41:29;1.05;;;0.40;;
23185;SDS011;11761;51.324;4.590;2022-12-31T06:43:56;0.35;;;0.22;;
23185;SDS011;11761;51.324;4.590;2022-12-31T06:46:21;1.85;;;0.38;;
23185;SDS011;11761;51.324;4.590;2022-12-31T06:48:47;1.27;;;0.35;;
23185;SDS011;11761;51.324;4.590;2022-12-31T06:51:14;3.75;;;0.55;;
23185;SDS011;11761;51.324;4.590;2022-12-31T06:53:45;1.00;;;0.38;;
23185;SDS011;11761;51.324;4.590;2022-12-31T06:56:13;2.22;;;0.40;;
23185;SDS011;11761;51.324;4.590;2022-12-31T06:58:42;1.55;;;0.40;;
23185;SDS011;11761;51.324;4.590;2022-12-31T07:09:47;1.02;;;0.30;;
23185;SDS011;11761;51.324;4.590;2022-12-31T07:14:59;1.38;;;0.50;;
23185;SDS011;11761;51.324;4.590;2022-12-31T07:20:17;1.90;;;0.73;;
23185;SDS011;11761;51.324;4.590;2022-12-31T07:22:44;0.57;;;0.40;;
23185;SDS011;11761;51.324;4.590;2022-12-31T07:25:14;1.88;;;0.40;;
23185;SDS011;11761;51.324;4.590;2022-12-31T07:30:35;1.83;;;0.73;;
23185;SDS011;11761;51.324;4.590;2022-12-31T07:39:20;0.60;;;0.40;;
23185;SDS011;11761;51.324;4.590;2022-12-31T07:41:53;1.27;;;0.40;;
23185;SDS011;11761;51.324;4.590;2022-12-31T07:46:58;2.20;;;0.55;;
23185;SDS011;11761;51.324;4.590;2022-12-31T07:49:26;1.60;;;0.40;;
23185;SDS011;11761;51.324;4.590;2022-12-31T07:51:53;1.27;;;0.47;;
23185;SDS011;11761;51.324;4.590;2022-12-31T07:54:20;1.85;;;0.50;;
23185;SDS011;11761;51.324;4.590;2022-12-31T07:56:46;2.13;;;0.63;;
23185;SDS011;11761;51.324;4.590;2022-12-31T08:13:38;1.38;;;0.63;;
23185;SDS011;11761;51.324;4.590;2022-12-31T08:16:08;2.53;;;0.55;;
23185;SDS011;11761;51.324;4.590;2022-12-31T08:18:35;1.95;;;0.50;;
23185;SDS011;11761;51.324;4.590;2022-12-31T08:21:12;1.92;;;0.80;;
23185;SDS011;11761;51.324;4.590;2022-12-31T08:37:45;2.05;;;0.60;;
23185;SDS011;11761;51.324;4.590;2022-12-31T08:43:40;0.95;;;0.65;;
23185;SDS011;11761;51.324;4.590;2022-12-31T08:45:51;1.40;;;0.55;;
23185;SDS011;11761;51.324;4.590;2022-12-31T08:50:55;1.05;;;0.60;;
23185;SDS011;11761;51.324;4.590;2022-12-31T08:53:22;2.00;;;0.60;;
23185;SDS011;11761;51.324;4.590;2022-12-31T08:55:48;3.03;;;0.77;;
23185;SDS011;11761;51.324;4.590;2022-12-31T09:00:49;1.77;;;0.98;;
23185;SDS011;11761;51.324;4.590;2022-12-31T09:06:10;2.78;;;0.82;;
23185;SDS011;11761;51.324;4.590;2022-12-31T09:08:48;1.67;;;0.82;;
23185;SDS011;11761;51.324;4.590;2022-12-31T09:11:37;3.33;;;1.00;;
23185;SDS011;11761;51.324;4.590;2022-12-31T09:14:36;2.00;;;0.80;;
23185;SDS011;11761;51.324;4.590;2022-12-31T09:19:49;0.77;;;0.70;;
23185;SDS011;11761;51.324;4.590;2022-12-31T09:22:16;3.35;;;0.85;;
23185;SDS011;11761;51.324;4.590;2022-12-31T09:24:42;1.75;;;0.80;;
23185;SDS011;11761;51.324;4.590;2022-12-31T09:27:12;1.85;;;0.82;;
23185;SDS011;11761;51.324;4.590;2022-12-31T09:37:48;3.90;;;1.40;;
23185;SDS011;11761;51.324;4.590;2022-12-31T09:43:18;2.20;;;0.98;;
23185;SDS011;11761;51.324;4.590;2022-12-31T09:55:12;2.63;;;0.82;;
23185;SDS011;11761;51.324;4.590;2022-12-31T10:00:04;6.93;;;0.93;;
23185;SDS011;11761;51.324;4.590;2022-12-31T10:11:10;3.75;;;0.70;;
23185;SDS011;11761;51.324;4.590;2022-12-31T10:13:58;2.53;;;0.70;;
23185;SDS011;11761;51.324;4.590;2022-12-31T10:32:36;1.40;;;0.73;;
23185;SDS011;11761;51.324;4.590;2022-12-31T11:18:25;1.15;;;0.60;;
23185;SDS011;11761;51.324;4.590;2022-12-31T11:34:24;3.95;;;0.70;;
23185;SDS011;11761;51.324;4.590;2022-12-31T11:51:26;1.88;;;0.80;;
23185;SDS011;11761;51.324;4.590;2022-12-31T11:54:47;2.33;;;1.20;;
23185;SDS011;11761;51.324;4.590;2022-12-31T11:57:07;6.15;;;2.80;;
23185;SDS011;11761;51.324;4.590;2022-12-31T11:59:53;4.38;;;2.50;;
23185;SDS011;11761;51.324;4.590;2022-12-31T12:02:27;1.88;;;1.13;;
23185;SDS011;11761;51.324;4.590;2022-12-31T12:05:02;4.82;;;1.48;;
23185;SDS011;11761;51.324;4.590;2022-12-31T12:07:31;4.43;;;0.95;;
23185;SDS011;11761;51.324;4.590;2022-12-31T12:09:57;3.78;;;1.17;;
23185;SDS011;11761;51.324;4.590;2022-12-31T12:12:41;4.43;;;1.00;;
23185;SDS011;11761;51.324;4.590;2022-12-31T12:15:08;1.23;;;0.80;;
23185;SDS011;11761;51.324;4.590;2022-12-31T12:17:35;2.72;;;1.40;;
23185;SDS011;11761;51.324;4.590;2022-12-31T12:20:03;2.70;;;1.15;;
23185;SDS011;11761;51.324;4.590;2022-12-31T12:22:47;4.40;;;1.45;;
23185;SDS011;11761;51.324;4.590;2022-12-31T12:25:20;4.20;;;1.40;;
23185;SDS011;11761;51.324;4.590;2022-12-31T12:27:48;1.67;;;0.82;;
23185;SDS011;11761;51.324;4.590;2022-12-31T12:30:22;2.97;;;0.93;;
23185;SDS011;11761;51.324;4.590;2022-12-31T12:32:54;2.92;;;1.10;;
23185;SDS011;11761;51.324;4.590;2022-12-31T12:35:23;3.33;;;1.50;;
23185;SDS011;11761;51.324;4.590;2022-12-31T12:37:58;3.78;;;1.27;;
23185;SDS011;11761;51.324;4.590;2022-12-31T12:40:33;3.70;;;1.10;;
23185;SDS011;11761;51.324;4.590;2022-12-31T12:42:59;4.00;;;1.42;;
23185;SDS011;11761;51.324;4.590;2022-12-31T12:45:28;3.70;;;1.00;;
23185;SDS011;11761;51.324;4.590;2022-12-31T12:48:07;3.72;;;1.33;;
23185;SDS011;11761;51.324;4.590;2022-12-31T12:50:42;1.45;;;0.60;;
23185;SDS011;11761;51.324;4.590;2022-12-31T12:58:47;2.55;;;0.80;;
23185;SDS011;11761;51.324;4.590;2022-12-31T13:09:45;4.65;;;1.75;;
23185;SDS011;11761;51.324;4.590;2022-12-31T13:12:33;2.85;;;0.80;;
23185;SDS011;11761;51.324;4.590;2022-12-31T13:15:10;2.55;;;1.05;;
23185;SDS011;11761;51.324;4.590;2022-12-31T13:20:22;2.83;;;1.00;;
23185;SDS011;11761;51.324;4.590;2022-12-31T13:23:06;5.65;;;0.93;;
23185;SDS011;11761;51.324;4.590;2022-12-31T13:28:28;3.08;;;0.77;;
23185;SDS011;11761;51.324;4.590;2022-12-31T13:31:03;4.40;;;1.10;;
23185;SDS011;11761;51.324;4.590;2022-12-31T13:33:38;5.13;;;1.42;;
23185;SDS011;11761;51.324;4.590;2022-12-31T13:36:12;3.58;;;1.33;;
23185;SDS011;11761;51.324;4.590;2022-12-31T13:38:48;2.70;;;0.80;;
23185;SDS011;11761;51.324;4.590;2022-12-31T13:41:21;4.45;;;1.52;;
23185;SDS011;11761;51.324;4.590;2022-12-31T13:49:45;2.22;;;1.10;;
23185;SDS011;11761;51.324;4.590;2022-12-31T13:57:36;3.42;;;1.55;;
23185;SDS011;11761;51.324;4.590;2022-12-31T14:00:04;2.40;;;1.10;;
23185;SDS011;11761;51.324;4.590;2022-12-31T14:08:07;5.07;;;1.02;;
23185;SDS011;11761;51.324;4.590;2022-12-31T14:13:38;3.80;;;1.30;;
23185;SDS011;11761;51.324;4.590;2022-12-31T14:16:11;5.13;;;1.20;;
23185;SDS011;11761;51.324;4.590;2022-12-31T14:19:05;4.90;;;1.40;;
23185;SDS011;11761;51.324;4.590;2022-12-31T14:21:38;3.00;;;1.65;;
23185;SDS011;11761;51.324;4.590;2022-12-31T14:24:25;5.38;;;1.40;;
23185;SDS011;11761;51.324;4.590;2022-12-31T14:27:18;3.10;;;1.25;;
23185;SDS011;11761;51.324;4.590;2022-12-31T14:36:08;3.40;;;1.70;;
23185;SDS011;11761;51.324;4.590;2022-12-31T14:52:30;4.90;;;1.40;;
23185;SDS011;11761;51.324;4.590;2022-12-31T14:55:14;3.03;;;1.60;;
23185;SDS011;11761;51.324;4.590;2022-12-31T14:57:47;4.13;;;1.60;;
23185;SDS011;11761;51.324;4.590;2022-12-31T15:02:50;3.67;;;1.67;;
23185;SDS011;11761;51.324;4.590;2022-12-31T15:05:20;3.83;;;1.50;;
23185;SDS011;11761;51.324;4.590;2022-12-31T15:13:06;3.65;;;1.92;;
23185;SDS011;11761;51.324;4.590;2022-12-31T15:15:41;5.90;;;1.65;;
23185;SDS011;11761;51.324;4.590;2022-12-31T15:18:53;7.83;;;1.97;;
23185;SDS011;11761;51.324;4.590;2022-12-31T15:24:20;3.83;;;1.40;;
23185;SDS011;11761;51.324;4.590;2022-12-31T15:26:49;5.03;;;1.75;;
23185;SDS011;11761;51.324;4.590;2022-12-31T15:29:26;3.58;;;1.77;;
23185;SDS011;11761;51.324;4.590;2022-12-31T15:31:59;3.67;;;1.52;;
23185;SDS011;11761;51.324;4.590;2022-12-31T15:34:29;3.50;;;1.27;;
23185;SDS011;11761;51.324;4.590;2022-12-31T15:37:04;2.70;;;1.23;;
23185;SDS011;11761;51.324;4.590;2022-12-31T15:39:50;4.90;;;1.48;;
23185;SDS011;11761;51.324;4.590;2022-12-31T15:45:17;2.50;;;1.50;;
23185;SDS011;11761;51.324;4.590;2022-12-31T15:48:07;2.80;;;1.42;;
23185;SDS011;11761;51.324;4.590;2022-12-31T15:50:44;2.72;;;1.50;;
23185;SDS011;11761;51.324;4.590;2022-12-31T15:53:17;2.85;;;1.20;;
23185;SDS011;11761;51.324;4.590;2022-12-31T15:55:52;2.33;;;1.23;;
23185;SDS011;11761;51.324;4.590;2022-12-31T15:58:28;2.30;;;1.38;;
23185;SDS011;11761;51.324;4.590;2022-12-31T16:03:45;3.85;;;1.58;;
23185;SDS011;11761;51.324;4.590;2022-12-31T16:06:16;7.88;;;1.83;;
23185;SDS011;11761;51.324;4.590;2022-12-31T16:08:43;4.80;;;1.48;;
23185;SDS011;11761;51.324;4.590;2022-12-31T16:11:12;4.57;;;1.42;;
23185;SDS011;11761;51.324;4.590;2022-12-31T16:13:40;5.30;;;1.45;;
23185;SDS011;11761;51.324;4.590;2022-12-31T16:16:24;4.78;;;1.58;;
23185;SDS011;11761;51.324;4.590;2022-12-31T16:18:52;6.07;;;1.63;;
23185;SDS011;11761;51.324;4.590;2022-12-31T16:21:22;2.65;;;1.45;;
23185;SDS011;11761;51.324;4.590;2022-12-31T16:24:00;1.95;;;0.88;;
23185;SDS011;11761;51.324;4.590;2022-12-31T16:26:45;3.05;;;1.13;;
23185;SDS011;11761;51.324;4.590;2022-12-31T16:29:14;3.80;;;1.63;;
23185;SDS011;11761;51.324;4.590;2022-12-31T16:31:43;5.22;;;1.80;;
23185;SDS011;11761;51.324;4.590;2022-12-31T16:34:17;5.22;;;1.70;;
23185;SDS011;11761;51.324;4.590;2022-12-31T16:36:58;5.07;;;1.60;;
23185;SDS011;11761;51.324;4.590;2022-12-31T16:39:33;3.28;;;1.67;;
23185;SDS011;11761;51.324;4.590;2022-12-31T16:42:07;2.83;;;1.20;;
23185;SDS011;11761;51.324;4.590;2022-12-31T16:44:46;2.27;;;1.40;;
23185;SDS011;11761;51.324;4.590;2022-12-31T16:47:14;2.65;;;1.15;;
23185;SDS011;11761;51.324;4.590;2022-12-31T16:49:55;2.83;;;1.40;;
23185;SDS011;11761;51.324;4.590;2022-12-31T16:52:39;4.40;;;1.65;;
23185;SDS011;11761;51.324;4.590;2022-12-31T16:55:13;3.30;;;1.50;;
23185;SDS011;11761;51.324;4.590;2022-12-31T16:57:42;4.25;;;1.50;;
23185;SDS011;11761;51.324;4.590;2022-12-31T17:00:15;4.35;;;1.80;;
23185;SDS011;11761;51.324;4.590;2022-12-31T17:03:25;2.97;;;1.23;;
23185;SDS011;11761;51.324;4.590;2022-12-31T17:05:33;4.82;;;1.45;;
23185;SDS011;11761;51.324;4.590;2022-12-31T17:08:27;3.00;;;1.40;;
23185;SDS011;11761;51.324;4.590;2022-12-31T17:11:03;1.95;;;1.20;;
23185;SDS011;11761;51.324;4.590;2022-12-31T17:13:30;3.53;;;1.20;;
23185;SDS011;11761;51.324;4.590;2022-12-31T17:15:59;2.85;;;1.63;;
23185;SDS011;11761;51.324;4.590;2022-12-31T17:18:27;2.80;;;1.50;;
23185;SDS011;11761;51.324;4.590;2022-12-31T17:21:04;2.85;;;1.30;;
23185;SDS011;11761;51.324;4.590;2022-12-31T17:23:33;5.25;;;1.75;;
23185;SDS011;11761;51.324;4.590;2022-12-31T17:26:10;3.03;;;1.45;;
23185;SDS011;11761;51.324;4.590;2022-12-31T17:28:41;2.80;;;1.58;;
23185;SDS011;11761;51.324;4.590;2022-12-31T17:36:37;5.45;;;3.30;;
23185;SDS011;11761;51.324;4.590;2022-12-31T17:39:25;8.77;;;3.13;;
23185;SDS011;11761;51.324;4.590;2022-12-31T17:41:54;9.68;;;6.53;;
23185;SDS011;11761;51.324;4.590;2022-12-31T17:44:22;5.90;;;2.50;;
23185;SDS011;11761;51.324;4.590;2022-12-31T17:46:52;3.30;;;1.52;;
23185;SDS011;11761;51.324;4.590;2022-12-31T17:49:19;3.03;;;1.85;;
23185;SDS011;11761;51.324;4.590;2022-12-31T17:51:51;8.68;;;2.95;;
23185;SDS011;11761;51.324;4.590;2022-12-31T17:54:18;5.97;;;3.75;;
23185;SDS011;11761;51.324;4.590;2022-12-31T17:56:44;8.13;;;3.83;;
23185;SDS011;11761;51.324;4.590;2022-12-31T17:59:15;5.28;;;1.67;;
23185;SDS011;11761;51.324;4.590;2022-12-31T18:01:55;7.60;;;3.00;;
23185;SDS011;11761;51.324;4.590;2022-12-31T18:04:24;3.80;;;1.90;;
23185;SDS011;11761;51.324;4.590;2022-12-31T18:06:51;3.90;;;1.80;;
23185;SDS011;11761;51.324;4.590;2022-12-31T18:09:17;5.03;;;2.75;;
23185;SDS011;11761;51.324;4.590;2022-12-31T18:11:43;3.35;;;2.45;;
23185;SDS011;11761;51.324;4.590;2022-12-31T18:14:13;7.57;;;4.80;;
23185;SDS011;11761;51.324;4.590;2022-12-31T18:16:40;3.05;;;1.50;;
23185;SDS011;11761;51.324;4.590;2022-12-31T18:19:13;2.40;;;1.55;;
23185;SDS011;11761;51.324;4.590;2022-12-31T18:21:40;5.47;;;2.88;;
23185;SDS011;11761;51.324;4.590;2022-12-31T18:24:12;7.28;;;3.10;;
23185;SDS011;11761;51.324;4.590;2022-12-31T18:26:40;3.67;;;1.90;;
23185;SDS011;11761;51.324;4.590;2022-12-31T18:29:16;5.55;;;2.53;;
23185;SDS011;11761;51.324;4.590;2022-12-31T18:31:44;3.53;;;1.60;;
23185;SDS011;11761;51.324;4.590;2022-12-31T18:34:12;3.45;;;1.88;;
23185;SDS011;11761;51.324;4.590;2022-12-31T18:36:40;6.28;;;1.95;;
23185;SDS011;11761;51.324;4.590;2022-12-31T18:39:06;3.83;;;1.50;;
23185;SDS011;11761;51.324;4.590;2022-12-31T18:41:37;5.43;;;1.98;;
23185;SDS011;11761;51.324;4.590;2022-12-31T18:44:08;5.05;;;2.42;;
23185;SDS011;11761;51.324;4.590;2022-12-31T18:46:35;2.90;;;1.52;;
23185;SDS011;11761;51.324;4.590;2022-12-31T18:49:02;3.80;;;1.55;;
23185;SDS011;11761;51.324;4.590;2022-12-31T18:51:29;5.43;;;2.22;;
23185;SDS011;11761;51.324;4.590;2022-12-31T18:53:55;2.67;;;1.67;;
23185;SDS011;11761;51.324;4.590;2022-12-31T18:56:21;6.13;;;2.20;;
23185;SDS011;11761;51.324;4.590;2022-12-31T18:58:49;5.50;;;2.15;;
23185;SDS011;11761;51.324;4.590;2022-12-31T19:03:58;4.05;;;1.95;;
23185;SDS011;11761;51.324;4.590;2022-12-31T19:06:27;5.65;;;1.73;;
23185;SDS011;11761;51.324;4.590;2022-12-31T19:08:54;4.78;;;1.65;;
23185;SDS011;11761;51.324;4.590;2022-12-31T19:11:20;3.95;;;1.60;;
23185;SDS011;11761;51.324;4.590;2022-12-31T19:13:47;5.10;;;1.73;;
23185;SDS011;11761;51.324;4.590;2022-12-31T19:16:13;3.90;;;1.40;;
23185;SDS011;11761;51.324;4.590;2022-12-31T19:18:40;7.40;;;1.70;;
23185;SDS011;11761;51.324;4.590;2022-12-31T19:21:16;4.03;;;1.50;;
23185;SDS011;11761;51.324;4.590;2022-12-31T19:23:44;4.38;;;1.88;;
23185;SDS011;11761;51.324;4.590;2022-12-31T19:26:12;8.05;;;1.70;;
23185;SDS011;11761;51.324;4.590;2022-12-31T19:28:40;3.53;;;1.95;;
23185;SDS011;11761;51.324;4.590;2022-12-31T19:31:06;8.52;;;1.90;;
23185;SDS011;11761;51.324;4.590;2022-12-31T19:33:32;6.90;;;1.52;;
23185;SDS011;11761;51.324;4.590;2022-12-31T19:35:58;3.97;;;1.48;;
23185;SDS011;11761;51.324;4.590;2022-12-31T19:38:24;7.38;;;1.55;;
23185;SDS011;11761;51.324;4.590;2022-12-31T19:40:51;4.03;;;1.55;;
23185;SDS011;11761;51.324;4.590;2022-12-31T19:43:19;4.60;;;1.95;;
23185;SDS011;11761;51.324;4.590;2022-12-31T19:45:47;3.50;;;1.58;;
23185;SDS011;11761;51.324;4.590;2022-12-31T19:48:18;5.68;;;1.60;;
23185;SDS011;11761;51.324;4.590;2022-12-31T19:50:47;4.22;;;1.92;;
23185;SDS011;11761;51.324;4.590;2022-12-31T19:53:25;5.07;;;1.60;;
23185;SDS011;11761;51.324;4.590;2022-12-31T19:55:52;2.72;;;1.25;;
23185;SDS011;11761;51.324;4.590;2022-12-31T19:58:19;2.22;;;1.08;;
23185;SDS011;11761;51.324;4.590;2022-12-31T20:00:50;5.38;;;1.38;;
23185;SDS011;11761;51.324;4.590;2022-12-31T20:03:16;2.88;;;1.50;;